Terminal Aerodrome Forecast
Issued by NWS

Home | Current Version | Previous Version | Text Only | Print | Product List | Glossary On
Versions: 1 2 3 4 5 6 7 8 9 10 11 12 13 14 15 16
000
FTUS44 KLZK 181720
TAFADF
TAF
KADF 181720Z 1818/1918 09004KT 6SM BR OVC009
      TEMPO 1818/1821 4SM -RA BR
     FM190000 08003KT 3SM -RA BR BKN001 OVC005
     FM190800 07002KT 4SM -SHRA BR OVC003
      TEMPO 1908/1912 4SM -TSRA BKN003CB
     FM191600 26003KT 4SM BR OVC003=

USA.gov is the U.S. government's official web portal to all federal, state and local government web resources and services.